Time;durP1;ratioP1;P1;durP2;ratioP2;P2;SDS_P1;SDS_P2;PMS_P1;PMS_P2;Temp;Humidity;BMP_temperature;BMP_pressure;BME280_temperature;BME280_humidity;BME280_pressure;Samples;Min_cycle;Max_cycle;Signal;HPM_P1;HPM_P2
2023/04/22 00:02:08;;;;;;;9.32;4.25;;;7.70;99.90;;;;;;5077403;28;20460;-75
2023/04/22 00:04:34;;;;;;;6.85;3.88;;;7.60;99.90;;;;;;5095612;28;20403;-75
2023/04/22 00:07:00;;;;;;;8.98;4.57;;;7.60;99.90;;;;;;5095565;28;20534;-75
2023/04/22 00:09:26;;;;;;;9.55;4.60;;;7.60;99.90;;;;;;5095529;28;20027;-76
2023/04/22 00:11:51;;;;;;;10.32;5.20;;;7.60;99.90;;;;;;5095968;28;20020;-76
2023/04/22 00:14:17;;;;;;;8.40;4.88;;;7.50;99.90;;;;;;5095764;28;20024;-76
2023/04/22 00:22:53;;;;;;;8.93;4.78;;;7.60;99.90;;;;;;5112292;28;20056;-75
2023/04/22 00:25:18;;;;;;;11.32;5.43;;;7.60;99.90;;;;;;5115369;28;20042;-75
2023/04/22 00:27:44;;;;;;;7.95;4.60;;;7.50;99.90;;;;;;5115755;28;20473;-75
2023/04/22 00:30:10;;;;;;;8.02;4.38;;;7.50;99.90;;;;;;5115246;28;20024;-75
2023/04/22 00:32:36;;;;;;;9.93;5.18;;;7.40;99.90;;;;;;5096957;28;20389;-75
2023/04/22 00:35:02;;;;;;;11.35;5.53;;;7.40;99.90;;;;;;5083346;28;20039;-76
2023/04/22 00:37:28;;;;;;;8.77;4.55;;;7.40;99.90;;;;;;5076723;28;20028;-77
2023/04/22 00:39:54;;;;;;;7.68;4.30;;;7.40;99.90;;;;;;5094722;28;20032;-77
2023/04/22 00:42:20;;;;;;;7.75;4.47;;;7.30;99.90;;;;;;5094752;28;20085;-76
2023/04/22 00:44:47;;;;;;;8.23;4.40;;;7.20;99.90;;;;;;5075801;28;20486;-76
2023/04/22 00:47:13;;;;;;;7.72;4.13;;;7.20;99.90;;;;;;5094654;28;20019;-75
2023/04/22 00:49:39;;;;;;;13.27;5.93;;;7.10;99.90;;;;;;5094679;28;20028;-76
2023/04/22 00:52:04;;;;;;;7.03;3.90;;;7.10;99.90;;;;;;5076461;28;20065;-76
2023/04/22 00:54:32;;;;;;;8.70;4.82;;;7.10;99.90;;;;;;5094517;28;20103;-76
2023/04/22 00:56:58;;;;;;;9.30;4.43;;;7.10;99.90;;;;;;5076364;28;20020;-76
2023/04/22 00:59:25;;;;;;;9.70;4.53;;;7.00;99.90;;;;;;5076261;28;20038;-76
2023/04/22 01:01:51;;;;;;;9.25;4.85;;;7.00;99.90;;;;;;5076232;28;20043;-76
2023/04/22 01:04:17;;;;;;;7.95;4.40;;;6.90;99.90;;;;;;5092723;28;20467;-76
2023/04/22 01:06:44;;;;;;;8.77;4.95;;;6.90;99.90;;;;;;5076087;28;20394;-76
2023/04/22 01:09:09;;;;;;;7.55;3.90;;;6.90;99.90;;;;;;5094228;28;20044;-76
2023/04/22 01:11:35;;;;;;;9.43;4.90;;;6.90;99.90;;;;;;5094237;28;20112;-76
2023/04/22 01:14:03;;;;;;;8.88;4.75;;;6.90;99.90;;;;;;5076079;28;20012;-76
2023/04/22 01:16:32;;;;;;;10.32;5.20;;;;;;;;;;5076254;28;20425;-76
2023/04/22 01:18:58;;;;;;;8.80;4.65;;;6.80;99.90;;;;;;5096931;28;20016;-77
2023/04/22 01:21:25;;;;;;;10.32;5.50;;;6.80;99.90;;;;;;5106869;28;20035;-77
2023/04/22 01:23:51;;;;;;;10.30;5.22;;;6.80;99.90;;;;;;5101626;28;20438;-77
2023/04/22 01:26:17;;;;;;;9.23;4.30;;;8.60;99.90;;;;;;5120363;28;20040;-77
2023/04/22 01:28:43;;;;;;;11.43;5.25;;;6.70;99.90;;;;;;5120040;28;20474;-76
2023/04/22 01:31:09;;;;;;;9.98;5.38;;;;;;;;;;5119325;28;20023;-77
2023/04/22 01:33:35;;;;;;;10.18;5.10;;;;;;;;;;5102103;28;20023;-76
2023/04/22 01:36:01;;;;;;;8.52;4.38;;;;;;;;;;5102057;28;20497;-76
2023/04/22 01:38:27;;;;;;;11.27;5.32;;;6.60;99.90;;;;;;5101746;28;20069;-76
2023/04/22 01:40:53;;;;;;;10.95;5.18;;;6.50;99.90;;;;;;5116338;28;20044;-76
2023/04/22 01:43:19;;;;;;;10.48;5.40;;;6.50;99.90;;;;;;5099586;28;20024;-77
2023/04/22 01:45:44;;;;;;;10.77;5.82;;;6.50;99.90;;;;;;5099190;28;20046;-76
2023/04/22 01:48:10;;;;;;;9.93;5.03;;;6.40;99.90;;;;;;5099095;28;20024;-76
2023/04/22 01:50:36;;;;;;;10.60;5.75;;;6.40;99.90;;;;;;5099697;28;20052;-77
2023/04/22 01:53:02;;;;;;;8.95;4.90;;;6.40;99.90;;;;;;5119170;28;20031;-77
2023/04/22 01:55:28;;;;;;;8.88;5.40;;;6.30;99.90;;;;;;5101679;28;20023;-76
2023/04/22 01:57:54;;;;;;;11.40;4.38;;;6.30;99.90;;;;;;5101786;28;20020;-76
2023/04/22 02:00:19;;;;;;;11.57;4.68;;;6.30;99.90;;;;;;5119953;28;20020;-76
2023/04/22 02:02:45;;;;;;;10.45;5.13;;;6.20;99.90;;;;;;5101313;28;20042;-76
2023/04/22 02:05:10;;;;;;;9.98;5.45;;;6.20;99.90;;;;;;5080438;28;20028;-77
2023/04/22 02:07:36;;;;;;;10.15;5.35;;;6.10;99.90;;;;;;5080766;28;20073;-76
2023/04/22 02:10:03;;;;;;;8.15;4.80;;;;;;;;;;5080685;28;20089;-76
2023/04/22 02:12:30;;;;;;;9.55;4.55;;;;;;;;;;5080747;28;20478;-77
2023/04/22 02:14:55;;;;;;;9.40;4.20;;;6.00;99.90;;;;;;5118079;28;20028;-79
2023/04/22 02:17:21;;;;;;;8.45;4.10;;;5.90;99.90;;;;;;5117658;28;20035;-77
2023/04/22 02:19:46;;;;;;;10.43;5.10;;;5.90;99.90;;;;;;5117838;28;20027;-77
2023/04/22 02:22:12;;;;;;;8.52;4.53;;;;;;;;;;5118171;28;20054;-77
2023/04/22 02:24:38;;;;;;;8.05;4.60;;;5.80;99.90;;;;;;5107079;28;20028;-77
2023/04/22 02:27:04;;;;;;;10.60;5.05;;;5.80;99.90;;;;;;5098886;28;20498;-76
2023/04/22 02:29:31;;;;;;;10.43;5.13;;;5.70;99.90;;;;;;5079640;28;20032;-76
2023/04/22 02:31:57;;;;;;;12.55;5.65;;;5.80;99.90;;;;;;5080998;28;20032;-76
2023/04/22 02:34:23;;;;;;;10.45;4.55;;;5.80;99.90;;;;;;5111625;28;20088;-76
2023/04/22 02:36:48;;;;;;;11.35;4.80;;;5.70;99.90;;;;;;5119314;28;20024;-76
2023/04/22 02:39:14;;;;;;;9.95;4.90;;;5.70;99.90;;;;;;5119158;28;20036;-76
2023/04/22 02:41:39;;;;;;;9.82;5.55;;;5.70;99.90;;;;;;5118173;28;20023;-76
2023/04/22 02:44:05;;;;;;;8.88;5.05;;;5.70;99.90;;;;;;5089535;28;20027;-76
2023/04/22 02:46:31;;;;;;;11.18;5.90;;;;;;;;;;5080501;28;20078;-77
2023/04/22 02:48:57;;;;;;;9.85;5.88;;;5.70;99.90;;;;;;5098650;28;20470;-76
2023/04/22 02:51:22;;;;;;;10.95;5.70;;;5.70;99.90;;;;;;5080618;28;20501;-76
2023/04/22 02:53:48;;;;;;;13.85;5.88;;;5.70;99.90;;;;;;5098325;28;20506;-78
2023/04/22 02:56:13;;;;;;;13.13;5.60;;;5.60;99.90;;;;;;5098174;28;20031;-77
2023/04/22 02:58:39;;;;;;;8.77;5.03;;;5.60;99.90;;;;;;5080894;28;20087;-76
2023/04/22 03:01:05;;;;;;;9.63;5.07;;;;;;;;;;5098182;28;20113;-76
2023/04/22 03:03:30;;;;;;;10.40;5.47;;;5.60;99.90;;;;;;5080535;28;20031;-77
2023/04/22 03:05:56;;;;;;;8.27;4.15;;;5.60;99.90;;;;;;5080268;28;20017;-76
2023/04/22 03:08:22;;;;;;;11.93;4.75;;;5.60;99.90;;;;;;5080714;28;20115;-77
2023/04/22 03:10:47;;;;;;;10.82;5.13;;;5.60;99.90;;;;;;5081805;28;20049;-77
2023/04/22 03:13:13;;;;;;;10.48;5.22;;;5.70;99.90;;;;;;5101072;28;20032;-77
2023/04/22 03:15:44;;;;;;;9.40;5.30;;;5.60;99.90;;;;;;5119506;28;20026;-76
2023/04/22 03:18:10;;;;;;;9.70;5.50;;;5.70;99.90;;;;;;5101076;28;20020;-76
2023/04/22 03:20:36;;;;;;;11.15;5.32;;;5.70;99.90;;;;;;5118758;28;20100;-76
2023/04/22 03:23:02;;;;;;;11.48;5.25;;;5.70;99.90;;;;;;5118496;28;20024;-77
2023/04/22 03:25:27;;;;;;;8.93;4.47;;;5.70;99.90;;;;;;5100417;28;20065;-77
2023/04/22 03:27:53;;;;;;;8.18;4.45;;;5.70;99.90;;;;;;5101446;28;20143;-77
2023/04/22 03:30:19;;;;;;;7.88;4.70;;;5.80;99.90;;;;;;5122452;28;20016;-76
2023/04/22 03:32:44;;;;;;;8.48;4.68;;;5.80;99.90;;;;;;5103808;28;20067;-77
2023/04/22 03:35:10;;;;;;;8.73;4.68;;;5.80;99.90;;;;;;5116612;28;20398;-78
2023/04/22 03:37:35;;;;;;;7.15;4.30;;;5.80;99.90;;;;;;5104572;28;20108;-77
2023/04/22 03:40:01;;;;;;;8.85;4.70;;;5.80;99.90;;;;;;5103722;28;20034;-76
2023/04/22 03:42:26;;;;;;;10.75;5.22;;;5.90;99.90;;;;;;5103575;28;20020;-77
2023/04/22 03:44:52;;;;;;;8.55;5.18;;;5.90;99.90;;;;;;5087698;28;20095;-77
2023/04/22 03:47:18;;;;;;;9.90;4.90;;;6.00;99.90;;;;;;5083071;28;20020;-76
2023/04/22 03:49:43;;;;;;;9.57;4.82;;;5.90;99.90;;;;;;5083262;28;20537;-76
2023/04/22 03:52:09;;;;;;;9.70;4.50;;;6.00;99.90;;;;;;5101073;28;20020;-76
2023/04/22 03:54:35;;;;;;;8.38;4.25;;;6.00;99.90;;;;;;5083189;28;20031;-77
2023/04/22 03:57:01;;;;;;;8.85;4.43;;;6.00;99.90;;;;;;5101566;28;20065;-77
2023/04/22 03:59:27;;;;;;;12.40;5.85;;;5.90;99.90;;;;;;5100140;28;20022;-76
2023/04/22 04:01:52;;;;;;;8.10;4.65;;;6.00;99.90;;;;;;5101903;28;20024;-76
2023/04/22 04:04:19;;;;;;;11.32;5.35;;;;;;;;;;5115364;28;20020;-76
2023/04/22 04:06:45;;;;;;;8.60;4.65;;;;;;;;;;5121590;28;20031;-77
2023/04/22 04:09:11;;;;;;;8.38;4.57;;;6.10;99.90;;;;;;5120833;28;20023;-77
2023/04/22 04:11:36;;;;;;;8.65;4.80;;;6.00;99.90;;;;;;5120894;28;20051;-76
2023/04/22 04:14:02;;;;;;;9.57;4.55;;;6.10;99.90;;;;;;5111279;28;20053;-77
2023/04/22 04:16:28;;;;;;;7.80;4.65;;;;;;;;;;5121360;28;20024;-76
2023/04/22 04:18:53;;;;;;;10.80;5.30;;;6.10;99.90;;;;;;5102587;28;20053;-76
2023/04/22 04:21:19;;;;;;;10.77;5.35;;;6.10;99.90;;;;;;5102041;28;20507;-76
2023/04/22 04:23:46;;;;;;;9.48;5.05;;;6.10;99.90;;;;;;5120435;28;20020;-76
2023/04/22 04:26:13;;;;;;;13.00;5.22;;;6.10;99.90;;;;;;5119216;28;20357;-75
2023/04/22 04:28:40;;;;;;;9.50;5.35;;;6.20;99.90;;;;;;5121820;28;20535;-76
2023/04/22 04:31:06;;;;;;;8.30;4.35;;;6.20;99.90;;;;;;5119261;28;20016;-76
2023/04/22 04:33:32;;;;;;;13.38;5.72;;;6.20;99.90;;;;;;5113041;28;20024;-77
2023/04/22 04:35:58;;;;;;;12.27;5.57;;;6.20;99.90;;;;;;5100096;28;20077;-77
2023/04/22 04:38:25;;;;;;;11.07;5.13;;;6.20;99.90;;;;;;5099860;28;20027;-76
2023/04/22 04:40:52;;;;;;;11.30;5.80;;;6.20;99.90;;;;;;5098610;28;20028;-76
2023/04/22 04:43:18;;;;;;;8.40;4.35;;;6.20;99.90;;;;;;5103579;28;20034;-77
2023/04/22 04:45:45;;;;;;;11.38;5.95;;;6.20;99.90;;;;;;5120131;28;20019;-76
2023/04/22 04:48:14;;;;;;;8.65;5.05;;;6.20;99.90;;;;;;5101622;28;20020;-76
2023/04/22 04:50:41;;;;;;;;;;;6.20;99.90;;;;;;5101846;28;20521;-77
2023/04/22 04:53:07;;;;;;;11.45;5.53;;;6.30;99.90;;;;;;5117616;28;19943;-77
2023/04/22 04:55:32;;;;;;;11.45;5.93;;;6.30;99.90;;;;;;5082212;28;20027;-77
2023/04/22 04:57:58;;;;;;;11.85;6.25;;;6.30;99.90;;;;;;5100287;28;20093;-76
2023/04/22 05:00:24;;;;;;;9.88;5.30;;;7.30;99.90;;;;;;5082184;28;20078;-77
2023/04/22 05:02:49;;;;;;;13.25;6.60;;;6.40;99.90;;;;;;5082338;28;20024;-78
2023/04/22 05:05:15;;;;;;;15.35;6.75;;;6.40;99.90;;;;;;5102341;28;20024;-76
2023/04/22 05:07:41;;;;;;;11.20;6.13;;;6.40;99.90;;;;;;5102105;28;20047;-77
2023/04/22 05:10:07;;;;;;;11.10;5.97;;;6.50;99.90;;;;;;5120812;28;20107;-76
2023/04/22 05:12:32;;;;;;;11.27;5.63;;;6.50;99.90;;;;;;5120456;28;20023;-76
2023/04/22 05:14:58;;;;;;;9.73;5.97;;;6.50;99.90;;;;;;5101900;28;20103;-77
2023/04/22 05:17:24;;;;;;;9.93;5.50;;;6.60;99.90;;;;;;5081749;28;20036;-77
2023/04/22 05:19:49;;;;;;;11.25;5.97;;;6.70;99.90;;;;;;5080855;28;20046;-76
2023/04/22 05:22:16;;;;;;;10.32;5.70;;;6.70;99.90;;;;;;5098322;28;20028;-76
2023/04/22 05:24:42;;;;;;;11.10;6.15;;;6.70;99.90;;;;;;5096042;28;20020;-77
2023/04/22 05:27:08;;;;;;;9.60;5.50;;;6.80;99.90;;;;;;5101089;28;20030;-77
2023/04/22 05:29:33;;;;;;;11.77;5.88;;;6.80;99.90;;;;;;5119135;28;20020;-76
2023/04/22 05:31:59;;;;;;;13.90;6.60;;;6.80;99.90;;;;;;5119112;28;20023;-77
2023/04/22 05:34:24;;;;;;;13.38;5.95;;;6.90;99.90;;;;;;5118661;28;20069;-76
2023/04/22 05:36:50;;;;;;;11.93;6.15;;;6.90;99.90;;;;;;5120475;28;20083;-76
2023/04/22 05:39:16;;;;;;;12.85;6.57;;;7.00;99.90;;;;;;5101123;28;20026;-76
2023/04/22 05:41:41;;;;;;;11.75;6.28;;;7.00;99.90;;;;;;5119310;28;20047;-76
2023/04/22 05:44:07;;;;;;;10.70;5.53;;;7.10;99.90;;;;;;5091005;28;20043;-75
2023/04/22 05:46:32;;;;;;;12.48;5.90;;;7.10;99.90;;;;;;5094401;28;20459;-75
2023/04/22 05:48:58;;;;;;;10.43;6.07;;;7.10;99.90;;;;;;5094536;28;20024;-76
2023/04/22 05:51:24;;;;;;;11.43;6.57;;;7.20;99.90;;;;;;5075525;28;20035;-76
2023/04/22 05:53:49;;;;;;;13.20;6.20;;;7.30;99.90;;;;;;5082912;28;20418;-76
2023/04/22 05:56:15;;;;;;;14.32;6.97;;;7.30;99.90;;;;;;5114677;28;20027;-77
2023/04/22 05:58:41;;;;;;;13.20;7.85;;;7.40;99.90;;;;;;5114102;28;20030;-77
2023/04/22 06:01:06;;;;;;;13.68;6.88;;;7.50;99.90;;;;;;5095973;28;20114;-77
2023/04/22 06:03:32;;;;;;;18.23;7.57;;;7.60;99.90;;;;;;5105836;28;20026;-77
2023/04/22 06:05:59;;;;;;;12.88;6.90;;;7.60;99.90;;;;;;5075597;28;20043;-77
2023/04/22 06:08:24;;;;;;;15.68;7.68;;;7.60;99.90;;;;;;5075968;28;20482;-77
2023/04/22 06:10:50;;;;;;;14.73;8.05;;;7.70;99.90;;;;;;5075575;28;20084;-77
2023/04/22 06:13:16;;;;;;;15.93;8.00;;;7.80;99.90;;;;;;5098265;28;20111;-77
2023/04/22 06:15:41;;;;;;;24.02;8.60;;;7.90;99.90;;;;;;5113988;28;20028;-77
2023/04/22 06:18:07;;;;;;;15.55;8.27;;;8.00;99.90;;;;;;5095601;28;20034;-77
2023/04/22 06:20:35;;;;;;;15.20;7.93;;;8.00;99.90;;;;;;5113362;28;20031;-74
2023/04/22 06:23:04;;;;;;;16.35;8.80;;;8.10;99.90;;;;;;5075230;28;20032;-77
2023/04/22 06:25:29;;;;;;;14.52;8.95;;;8.20;99.90;;;;;;5075340;28;20024;-76
2023/04/22 06:27:55;;;;;;;16.23;7.95;;;8.30;99.90;;;;;;5075363;28;20064;-77
2023/04/22 06:30:21;;;;;;;17.10;8.88;;;;;;;;;;5075293;28;20027;-77
2023/04/22 06:32:46;;;;;;;17.17;9.02;;;8.50;99.90;;;;;;5075465;28;20028;-75
2023/04/22 06:35:12;;;;;;;19.23;9.27;;;8.60;99.90;;;;;;5093240;28;20513;-76
2023/04/22 06:37:38;;;;;;;17.52;8.90;;;8.80;99.90;;;;;;5093230;28;20027;-75
2023/04/22 06:40:04;;;;;;;18.50;10.02;;;8.80;99.90;;;;;;5074969;28;20024;-76
2023/04/22 06:42:29;;;;;;;19.38;10.57;;;8.90;99.90;;;;;;5108240;28;20089;-76
2023/04/22 06:44:55;;;;;;;16.65;9.38;;;9.00;99.90;;;;;;5113501;28;20028;-75
2023/04/22 06:47:20;;;;;;;17.65;9.60;;;9.20;99.90;;;;;;5113329;28;20026;-76
2023/04/22 06:49:46;;;;;;;17.33;9.30;;;9.20;99.90;;;;;;5113414;28;20104;-76
2023/04/22 06:52:12;;;;;;;18.40;9.02;;;9.60;99.90;;;;;;5100435;28;20020;-76
2023/04/22 06:54:37;;;;;;;17.60;9.63;;;9.40;99.90;;;;;;5075003;28;20119;-75
2023/04/22 06:57:03;;;;;;;19.27;10.20;;;9.50;99.90;;;;;;5093247;28;20028;-75
2023/04/22 06:59:28;;;;;;;17.83;10.00;;;9.60;99.90;;;;;;5074791;28;20386;-76
2023/04/22 07:01:54;;;;;;;16.48;9.52;;;;;;;;;;5102590;28;20031;-76
2023/04/22 07:04:20;;;;;;;20.80;11.38;;;9.70;99.90;;;;;;5116443;28;20035;-76
2023/04/22 07:06:46;;;;;;;17.88;9.75;;;;;;;;;;5117411;28;20102;-77
2023/04/22 07:09:12;;;;;;;19.85;9.80;;;10.00;99.90;;;;;;5098863;28;20063;-77
2023/04/22 07:11:37;;;;;;;17.55;9.82;;;10.10;99.90;;;;;;5094111;28;20016;-76
2023/04/22 07:14:03;;;;;;;18.67;9.70;;;10.30;99.90;;;;;;5116731;28;20032;-76
2023/04/22 07:16:29;;;;;;;18.15;9.32;;;10.50;99.90;;;;;;5117444;28;20024;-74
2023/04/22 07:18:54;;;;;;;17.30;10.07;;;10.60;99.90;;;;;;5098563;28;20053;-75
2023/04/22 07:21:20;;;;;;;16.88;10.07;;;10.90;99.90;;;;;;5111400;28;20077;-75
2023/04/22 07:23:45;;;;;;;15.30;9.50;;;11.20;99.90;;;;;;5096388;28;20024;-74
2023/04/22 07:26:11;;;;;;;16.15;9.07;;;11.20;99.90;;;;;;5096464;28;20091;-73
2023/04/22 07:28:37;;;;;;;16.52;8.82;;;11.50;99.90;;;;;;5096086;28;20024;-75
2023/04/22 07:31:02;;;;;;;16.63;8.32;;;11.40;99.90;;;;;;5096588;28;20027;-75
2023/04/22 07:33:28;;;;;;;15.13;8.90;;;11.50;99.90;;;;;;5077981;28;20114;-75
2023/04/22 07:35:53;;;;;;;16.10;9.07;;;11.40;99.90;;;;;;5096175;28;20104;-75
2023/04/22 07:38:19;;;;;;;12.93;7.43;;;11.70;99.90;;;;;;5077876;28;20111;-74
2023/04/22 07:40:48;;;;;;;14.88;7.10;;;11.80;99.90;;;;;;5095858;28;20020;-74
2023/04/22 07:43:13;;;;;;;12.80;7.70;;;12.00;99.90;;;;;;5097603;28;20027;-74
2023/04/22 07:45:39;;;;;;;12.90;7.50;;;12.10;99.90;;;;;;5116367;28;20020;-74
2023/04/22 07:48:04;;;;;;;13.32;7.18;;;12.30;99.90;;;;;;5098238;28;20015;-74
2023/04/22 07:50:30;;;;;;;12.85;7.07;;;12.40;99.90;;;;;;5110195;28;20406;-74
2023/04/22 07:52:56;;;;;;;13.02;7.00;;;12.60;99.90;;;;;;5079809;28;20395;-74
2023/04/22 07:55:21;;;;;;;11.00;6.57;;;12.80;99.90;;;;;;5095877;28;20536;-73
2023/04/22 07:57:47;;;;;;;11.35;6.80;;;12.70;99.90;;;;;;5081276;28;20111;-74
2023/04/22 08:00:16;;;;;;;11.43;7.05;;;13.00;99.90;;;;;;5095636;28;20467;-77
2023/04/22 08:02:42;;;;;;;13.02;7.10;;;12.70;99.90;;;;;;5103999;28;20024;-74
2023/04/22 08:05:08;;;;;;;12.05;7.60;;;12.80;99.90;;;;;;5115483;28;20023;-74
2023/04/22 08:07:34;;;;;;;10.88;6.53;;;12.70;99.90;;;;;;5115910;28;20019;-76
2023/04/22 08:10:00;;;;;;;11.35;7.43;;;12.70;99.90;;;;;;5097539;28;20115;-75
2023/04/22 08:12:25;;;;;;;12.88;7.55;;;12.70;99.90;;;;;;5112932;28;20027;-74
2023/04/22 08:14:51;;;;;;;15.00;8.07;;;12.60;99.90;;;;;;5097847;28;20028;-75
2023/04/22 08:17:20;;;;;;;9.80;6.80;;;12.90;99.90;;;;;;5095123;28;20028;-74
2023/04/22 08:19:47;;;;;;;12.05;7.10;;;13.10;99.90;;;;;;5095214;28;20024;-75
2023/04/22 08:22:12;;;;;;;10.65;6.45;;;15.00;99.90;;;;;;5077439;28;20089;-75
2023/04/22 08:24:38;;;;;;;11.13;6.22;;;13.30;99.90;;;;;;5101101;28;20019;-74
2023/04/22 08:27:04;;;;;;;9.52;6.30;;;13.40;99.90;;;;;;5090296;28;20509;-75
2023/04/22 08:29:29;;;;;;;12.50;5.80;;;13.50;99.90;;;;;;5088300;28;20016;-75
2023/04/22 08:31:55;;;;;;;10.10;5.28;;;13.60;99.90;;;;;;5108486;28;20072;-75
2023/04/22 08:34:20;;;;;;;11.50;5.82;;;13.60;99.90;;;;;;5081001;28;20099;-74
2023/04/22 08:36:46;;;;;;;10.10;5.57;;;13.80;99.90;;;;;;5094771;28;20028;-75
2023/04/22 08:39:11;;;;;;;11.45;5.80;;;14.00;99.90;;;;;;5103324;28;20068;-75
2023/04/22 08:41:38;;;;;;;8.25;5.53;;;13.90;99.90;;;;;;5086922;28;20020;-75
2023/04/22 08:44:04;;;;;;;9.55;5.53;;;14.10;99.90;;;;;;5103930;28;20062;-74
2023/04/22 08:46:30;;;;;;;8.95;5.68;;;14.20;99.90;;;;;;5114342;28;20017;-75
2023/04/22 08:49:02;;;;;;;8.75;5.10;;;14.30;99.90;;;;;;5114166;28;20504;-74
2023/04/22 08:51:27;;;;;;;9.60;5.57;;;14.60;99.90;;;;;;5095915;28;20027;-74
2023/04/22 08:53:53;;;;;;;8.00;5.35;;;14.70;99.90;;;;;;5105843;28;20035;-78
2023/04/22 08:56:21;;;;;;;9.63;5.65;;;14.70;99.90;;;;;;5093786;28;20444;-77
2023/04/22 08:58:47;;;;;;;7.10;5.28;;;14.70;99.90;;;;;;5075856;28;20028;-77
2023/04/22 09:01:13;;;;;;;8.55;5.20;;;14.80;99.90;;;;;;5093773;28;20437;-78
2023/04/22 09:03:40;;;;;;;7.68;4.47;;;14.90;99.90;;;;;;5099958;28;20018;-78
2023/04/22 09:06:10;;;;;;;8.52;4.75;;;15.00;99.90;;;;;;5095494;28;20028;-77
2023/04/22 09:08:36;;;;;;;7.70;4.65;;;15.10;99.90;;;;;;5113817;28;20016;-78
2023/04/22 09:11:03;;;;;;;7.38;4.65;;;15.10;99.90;;;;;;5095521;28;20028;-77
2023/04/22 09:13:28;;;;;;;7.63;4.55;;;15.20;99.90;;;;;;5091015;28;20016;-78
2023/04/22 09:15:54;;;;;;;6.07;3.92;;;15.50;99.90;;;;;;5093497;28;20043;-77
2023/04/22 09:18:20;;;;;;;6.18;3.90;;;;;;;;;;5075224;28;20020;-77
2023/04/22 09:20:47;;;;;;;6.47;3.63;;;15.90;99.90;;;;;;5037646;28;1068827;-77
2023/04/22 09:23:13;;;;;;;9.52;3.10;;;15.90;99.90;;;;;;5078534;28;20451;-77
2023/04/22 09:25:40;;;;;;;7.45;3.75;;;15.90;99.90;;;;;;5114048;28;20018;-77
2023/04/22 09:28:09;;;;;;;4.85;3.45;;;16.10;99.90;;;;;;5114501;28;20027;-77
2023/04/22 09:30:36;;;;;;;5.72;3.55;;;;;;;;;;5096181;28;20505;-77
2023/04/22 09:33:04;;;;;;;5.00;3.15;;;16.50;99.90;;;;;;5114572;28;20020;-78
2023/04/22 09:35:30;;;;;;;4.80;2.95;;;16.50;99.90;;;;;;5094581;28;20095;-77
2023/04/22 09:37:58;;;;;;;5.93;3.03;;;16.60;99.90;;;;;;5093965;28;20058;-77
2023/04/22 09:40:25;;;;;;;5.25;3.78;;;16.70;99.90;;;;;;5093987;28;20016;-77
2023/04/22 09:42:53;;;;;;;7.03;3.28;;;16.90;99.90;;;;;;5075897;28;20459;-77
2023/04/22 09:45:32;;;;;;;6.60;3.20;;;17.10;99.90;;;;;;5112770;28;20020;-77
2023/04/22 09:48:08;;;;;;;4.82;3.08;;;17.10;99.90;;;;;;5114766;28;20031;-77
2023/04/22 09:50:35;;;;;;;6.22;3.38;;;17.30;99.90;;;;;;5114186;28;20093;-77
2023/04/22 09:53:04;;;;;;;5.38;3.05;;;17.50;99.90;;;;;;5114263;28;20052;-77
2023/04/22 09:55:36;;;;;;;4.80;3.28;;;17.60;99.90;;;;;;5113192;28;20503;-77
2023/04/22 09:58:10;;;;;;;6.57;2.97;;;18.00;99.90;;;;;;5114125;28;20497;-77
2023/04/22 10:00:41;;;;;;;7.15;3.92;;;18.40;99.90;;;;;;5114462;28;20114;-78
2023/04/22 10:03:07;;;;;;;3.95;2.72;;;18.40;99.90;;;;;;5090882;28;20012;-77
2023/04/22 10:05:36;;;;;;;4.63;3.05;;;18.40;99.90;;;;;;5093667;28;20020;-77
2023/04/22 10:08:07;;;;;;;3.85;2.40;;;18.70;99.90;;;;;;5075357;28;20471;-76
2023/04/22 10:10:33;;;;;;;4.30;3.05;;;18.80;99.90;;;;;;5093521;28;20419;-77
2023/04/22 10:13:00;;;;;;;4.60;2.42;;;18.60;99.90;;;;;;5095884;28;20402;-78
2023/04/22 10:15:31;;;;;;;5.68;3.10;;;18.70;99.90;;;;;;5113525;28;20024;-77
2023/04/22 10:17:57;;;;;;;5.68;2.35;;;18.70;99.90;;;;;;5113750;28;20034;-77
2023/04/22 10:20:25;;;;;;;5.15;2.80;;;18.90;99.90;;;;;;5095319;28;20028;-77
2023/04/22 10:22:52;;;;;;;4.57;2.70;;;18.90;99.90;;;;;;5112996;28;20475;-78
2023/04/22 10:25:25;;;;;;;5.07;2.90;;;18.90;99.90;;;;;;5093881;28;20020;-77
2023/04/22 10:28:05;;;;;;;5.60;2.95;;;18.70;99.90;;;;;;5093533;28;20024;-77
2023/04/22 10:30:33;;;;;;;5.03;3.08;;;18.90;99.90;;;;;;5093238;28;20024;-77
2023/04/22 10:33:20;;;;;;;4.95;3.28;;;18.90;99.90;;;;;;5094255;28;20060;-77
2023/04/22 10:36:13;;;;;;;4.70;3.05;;;19.50;99.90;;;;;;5093030;28;20028;-77
2023/04/22 10:38:59;;;;;;;4.97;3.03;;;19.70;99.90;;;;;;5076930;28;20028;-77
2023/04/22 10:41:37;;;;;;;4.88;3.28;;;20.00;99.90;;;;;;5079739;28;20078;-77
2023/04/22 10:44:06;;;;;;;9.27;3.17;;;20.00;99.90;;;;;;5107246;28;20106;-77
2023/04/22 10:46:44;;;;;;;4.72;2.67;;;19.90;99.90;;;;;;5117687;28;20265;-77
2023/04/22 10:49:16;;;;;;;5.35;3.00;;;20.00;99.90;;;;;;5099873;28;20019;-78
2023/04/22 10:51:42;;;;;;;4.65;2.67;;;20.00;99.90;;;;;;5117931;28;20020;-77
2023/04/22 10:54:26;;;;;;;7.68;4.78;;;20.00;99.90;;;;;;5089780;28;20127;-77
2023/04/22 10:57:08;;;;;;;7.78;3.95;;;19.50;99.90;;;;;;5079571;28;20032;-77
2023/04/22 10:59:41;;;;;;;7.43;4.25;;;19.40;99.90;;;;;;5097433;28;20028;-78
2023/04/22 11:02:08;;;;;;;6.60;4.43;;;18.80;99.90;;;;;;5079155;28;20471;-77
2023/04/22 11:04:34;;;;;;;7.05;4.32;;;18.50;99.90;;;;;;5109387;28;20467;-77
2023/04/22 11:07:25;;;;;;;8.55;4.90;;;18.20;99.90;;;;;;5117142;28;20080;-77
2023/04/22 11:10:06;;;;;;;9.85;4.93;;;17.90;99.90;;;;;;5117198;28;20024;-77
2023/04/22 11:12:37;;;;;;;8.20;4.60;;;17.90;99.90;;;;;;5098381;28;20024;-77
2023/04/22 11:15:13;;;;;;;7.80;4.82;;;17.70;99.90;;;;;;5082482;28;20086;-77
2023/04/22 11:17:42;;;;;;;9.18;4.68;;;17.50;99.90;;;;;;5096628;28;20016;-77
2023/04/22 11:20:08;;;;;;;;;;;17.40;99.90;;;;;;5097785;28;20028;-78
2023/04/22 11:22:35;;;;;;;9.65;5.68;;;17.40;99.90;;;;;;5096656;28;19922;-78
2023/04/22 11:25:02;;;;;;;7.28;5.00;;;17.40;99.90;;;;;;5111982;28;20095;-78
2023/04/22 11:27:29;;;;;;;9.27;5.38;;;17.40;99.90;;;;;;5098780;28;20076;-77
2023/04/22 11:30:08;;;;;;;10.07;4.95;;;18.10;99.90;;;;;;5098343;28;20092;-78
2023/04/22 11:32:40;;;;;;;8.48;5.03;;;17.40;99.90;;;;;;5116678;28;20035;-78
2023/04/22 11:35:07;;;;;;;9.57;5.05;;;17.30;99.90;;;;;;5100369;28;20030;-78
2023/04/22 11:37:50;;;;;;;8.53;4.77;;;17.10;99.90;;;;;;5096061;28;20078;-78
2023/04/22 11:40:20;;;;;;;7.43;4.65;;;17.00;99.90;;;;;;5096078;28;20017;-78
2023/04/22 11:42:47;;;;;;;8.75;4.30;;;17.10;99.90;;;;;;5096222;28;20051;-78
2023/04/22 11:45:13;;;;;;;6.65;4.20;;;16.70;99.90;;;;;;5081939;28;20020;-78
2023/04/22 11:47:40;;;;;;;8.02;4.05;;;16.40;99.90;;;;;;5095845;28;20035;-78
2023/04/22 11:50:08;;;;;;;7.50;4.90;;;16.20;99.90;;;;;;5077479;28;20387;-78
2023/04/22 11:52:51;;;;;;;7.95;5.20;;;16.20;99.90;;;;;;5095920;28;20032;-78
2023/04/22 11:55:21;;;;;;;8.35;5.20;;;16.10;99.90;;;;;;5094896;28;20066;-78
2023/04/22 11:58:00;;;;;;;10.63;6.30;;;15.80;99.90;;;;;;5116208;28;20028;-78
2023/04/22 12:00:39;;;;;;;8.93;5.63;;;15.70;99.90;;;;;;5116766;28;20111;-77
2023/04/22 12:03:17;;;;;;;9.82;5.78;;;15.60;99.90;;;;;;5111847;28;20498;-78
2023/04/22 12:05:44;;;;;;;11.10;6.13;;;15.30;99.90;;;;;;5093421;28;20577;-78
2023/04/22 12:08:13;;;;;;;15.77;6.47;;;15.20;99.90;;;;;;5112882;28;20052;-78
2023/04/22 12:10:50;;;;;;;10.45;6.00;;;15.10;99.90;;;;;;5114280;28;20483;-78
2023/04/22 12:13:22;;;;;;;11.18;7.57;;;15.10;99.90;;;;;;5110512;28;20027;-77
2023/04/22 12:15:53;;;;;;;11.27;7.03;;;15.00;99.90;;;;;;5110978;28;20467;-76
2023/04/22 12:18:36;;;;;;;11.93;7.47;;;14.80;99.90;;;;;;5115372;28;20052;-77
2023/04/22 12:21:12;;;;;;;13.55;7.18;;;14.80;99.90;;;;;;5094950;28;20027;-75
2023/04/22 12:23:56;;;;;;;13.32;7.57;;;14.70;99.90;;;;;;5114654;28;20020;-75
2023/04/22 12:26:23;;;;;;;13.80;6.88;;;14.70;99.90;;;;;;5096302;28;20172;-75
2023/04/22 12:28:49;;;;;;;13.70;7.22;;;;;;;;;;5096857;28;20016;-75
2023/04/22 12:31:16;;;;;;;14.35;7.15;;;14.50;99.90;;;;;;5115058;28;20034;-75
2023/04/22 12:33:43;;;;;;;12.70;6.90;;;14.30;99.90;;;;;;5092188;28;20028;-75
2023/04/22 12:36:09;;;;;;;14.63;7.60;;;14.20;99.90;;;;;;5103717;28;20031;-75
2023/04/22 12:38:35;;;;;;;11.68;7.70;;;14.00;99.90;;;;;;5115426;28;20168;-76
2023/04/22 12:41:01;;;;;;;11.20;7.00;;;13.80;99.90;;;;;;5097106;28;20114;-75
2023/04/22 12:43:27;;;;;;;13.60;7.28;;;13.70;99.90;;;;;;5114813;28;20034;-75
2023/04/22 12:45:52;;;;;;;17.65;8.32;;;13.60;99.90;;;;;;5097269;28;20024;-75
2023/04/22 12:48:18;;;;;;;12.45;7.60;;;13.50;99.90;;;;;;5115377;28;20020;-76
2023/04/22 12:50:44;;;;;;;15.57;8.88;;;13.50;99.90;;;;;;5115330;28;20039;-76
2023/04/22 12:53:09;;;;;;;12.32;7.68;;;13.50;99.90;;;;;;5113206;28;20027;-75
2023/04/22 12:55:35;;;;;;;12.68;7.38;;;13.50;99.90;;;;;;5094816;28;20039;-76
2023/04/22 12:58:01;;;;;;;13.60;7.45;;;13.50;99.90;;;;;;5076457;28;20097;-76
2023/04/22 13:00:28;;;;;;;14.07;7.80;;;;;;;;;;5075637;28;20020;-75